createdAt,value
2023-03-08T00:02:31.574Z,1.00
2023-03-08T00:06:49.639Z,1.00
2023-03-08T00:11:08.432Z,1.00
2023-03-08T00:15:27.345Z,0.90
2023-03-08T00:19:46.989Z,0.90
2023-03-08T00:24:04.957Z,0.90
2023-03-08T00:28:23.054Z,0.80
2023-03-08T00:32:46.147Z,0.80
2023-03-08T00:37:05.522Z,0.80
2023-03-08T00:41:23.633Z,0.80
2023-03-08T00:45:48.776Z,0.80
2023-03-08T00:50:15.510Z,0.90
2023-03-08T00:54:39.923Z,0.90
2023-03-08T00:59:06.197Z,0.90
2023-03-08T01:03:30.637Z,0.90
2023-03-08T01:07:56.524Z,0.90
2023-03-08T01:12:22.740Z,1.00
2023-03-08T01:16:46.574Z,1.00
2023-03-08T01:21:12.359Z,1.00
2023-03-08T01:25:38.696Z,1.00
2023-03-08T01:30:02.679Z,1.00
2023-03-08T01:34:26.605Z,1.00
2023-03-08T01:38:52.294Z,1.00
2023-03-08T01:43:29.114Z,1.00
2023-03-08T01:47:52.979Z,1.00
2023-03-08T01:52:27.172Z,1.00
2023-03-08T01:56:53.090Z,1.00
2023-03-08T02:01:21.196Z,1.00
2023-03-08T02:05:53.216Z,1.00
2023-03-08T02:10:20.128Z,1.00
2023-03-08T02:14:45.799Z,1.00
2023-03-08T02:19:17.972Z,1.00
2023-03-08T02:23:44.556Z,1.00
2023-03-08T02:28:11.288Z,1.10
2023-03-08T02:32:35.279Z,1.10
2023-03-08T02:36:59.515Z,1.10
2023-03-08T02:41:24.742Z,1.10
2023-03-08T02:45:49.140Z,1.10
2023-03-08T02:50:13.285Z,1.10
2023-03-08T02:54:37.518Z,1.10
2023-03-08T02:59:02.900Z,1.10
2023-03-08T03:03:26.932Z,1.10
2023-03-08T03:07:50.948Z,1.00
2023-03-08T03:12:17.473Z,1.00
2023-03-08T03:16:43.027Z,0.80
2023-03-08T03:21:11.681Z,0.80
2023-03-08T03:25:38.476Z,0.70
2023-03-08T03:30:05.852Z,0.60
2023-03-08T03:34:32.436Z,0.60
2023-03-08T03:38:56.898Z,0.60
2023-03-08T03:43:21.652Z,0.70
2023-03-08T03:47:47.299Z,0.70
2023-03-08T03:52:13.198Z,0.80
2023-03-08T03:56:42.618Z,0.80
2023-03-08T04:01:09.224Z,0.90
2023-03-08T04:05:33.318Z,0.90
2023-03-08T04:09:58.969Z,0.90
2023-03-08T04:14:23.524Z,0.90
2023-03-08T04:18:53.652Z,0.90
2023-03-08T04:23:19.813Z,0.90
2023-03-08T04:27:46.862Z,0.90
2023-03-08T04:32:10.897Z,0.90
2023-03-08T04:36:40.898Z,0.90
2023-03-08T04:41:11.740Z,0.90
2023-03-08T04:45:56.986Z,1.00
2023-03-08T04:50:21.118Z,1.00
2023-03-08T04:54:45.737Z,1.00
2023-03-08T04:59:17.408Z,1.00
2023-03-08T05:03:43.456Z,1.00
2023-03-08T05:08:07.883Z,1.00
2023-03-08T05:12:33.889Z,1.00
2023-03-08T05:17:01.461Z,1.00
2023-03-08T05:21:28.596Z,1.00
2023-03-08T05:25:58.070Z,1.00
2023-03-08T05:30:22.562Z,1.00
2023-03-08T05:34:48.237Z,1.00
2023-03-08T05:39:22.543Z,1.00
2023-03-08T05:43:58.543Z,1.00
2023-03-08T05:48:50.540Z,1.00
2023-03-08T05:53:43.333Z,1.00
2023-03-08T05:58:36.523Z,1.00
2023-03-08T06:03:28.850Z,1.10
2023-03-08T06:08:20.031Z,1.10
2023-03-08T06:13:11.624Z,1.10
2023-03-08T06:18:04.016Z,1.20
2023-03-08T06:22:55.285Z,1.20
2023-03-08T06:27:51.619Z,1.30
2023-03-08T06:32:51.345Z,1.30
2023-03-08T06:38:02.910Z,1.40
2023-03-08T06:42:55.633Z,1.40
2023-03-08T06:47:51.149Z,1.40
2023-03-08T06:52:42.651Z,1.50
2023-03-08T06:57:35.006Z,1.60
2023-03-08T07:02:25.964Z,1.70
2023-03-08T07:07:16.981Z,1.90
2023-03-08T07:12:08.233Z,2.20
2023-03-08T07:17:00.793Z,2.40
2023-03-08T07:21:51.524Z,2.60
2023-03-08T07:26:42.953Z,2.80
2023-03-08T07:31:36.742Z,2.90
2023-03-08T07:36:29.129Z,3.10
2023-03-08T07:41:20.183Z,3.40
2023-03-08T07:46:11.155Z,3.60
2023-03-08T07:51:05.556Z,3.60
2023-03-08T07:55:58.720Z,3.60
2023-03-08T08:00:49.891Z,3.70
2023-03-08T08:05:41.302Z,3.70
2023-03-08T08:10:32.221Z,3.60
2023-03-08T08:15:25.785Z,3.50
2023-03-08T08:20:17.704Z,3.40
2023-03-08T08:25:09.371Z,3.50
2023-03-08T08:30:00.086Z,3.70
2023-03-08T08:34:52.476Z,3.70
2023-03-08T08:39:43.268Z,3.70
2023-03-08T08:44:34.357Z,3.60
2023-03-08T08:49:25.365Z,3.50
2023-03-08T08:54:17.870Z,3.30
2023-03-08T08:59:10.059Z,3.30
2023-03-08T09:04:01.442Z,3.30
2023-03-08T09:09:22.270Z,3.10
2023-03-08T09:14:13.560Z,3.00
2023-03-08T09:19:05.766Z,2.90
2023-03-08T09:23:57.093Z,2.90
2023-03-08T09:28:49.286Z,2.70
2023-03-08T09:33:41.202Z,2.60
2023-03-08T09:38:32.678Z,2.50
2023-03-08T09:43:31.775Z,2.40
2023-03-08T09:48:27.574Z,2.50
2023-03-08T09:53:25.478Z,2.40
2023-03-08T09:58:23.457Z,2.40
2023-03-08T10:03:36.802Z,2.40
2023-03-08T10:08:33.223Z,2.20
2023-03-08T10:13:33.589Z,2.20
2023-03-08T10:18:30.946Z,2.10
2023-03-08T10:23:25.971Z,1.90
2023-03-08T10:28:19.311Z,1.80
2023-03-08T10:33:12.925Z,1.70
2023-03-08T10:38:04.617Z,1.70
2023-03-08T10:43:01.311Z,1.70
2023-03-08T10:47:57.838Z,1.70
2023-03-08T10:52:51.232Z,1.70
2023-03-08T10:57:45.861Z,1.70
2023-03-08T11:02:38.477Z,1.80
2023-03-08T11:07:31.727Z,1.80
2023-03-08T11:12:25.068Z,1.90
2023-03-08T11:17:20.807Z,1.90
2023-03-08T11:22:23.211Z,1.90
2023-03-08T11:27:27.905Z,1.90
2023-03-08T11:32:32.229Z,1.90
2023-03-08T11:37:32.985Z,1.80
2023-03-08T11:42:32.109Z,1.80
2023-03-08T11:47:41.325Z,1.80
2023-03-08T11:52:41.775Z,1.80
2023-03-08T11:57:38.200Z,1.80
2023-03-08T12:02:34.636Z,1.80
2023-03-08T12:07:29.908Z,1.70
2023-03-08T12:12:28.068Z,1.70
2023-03-08T12:17:24.658Z,1.70
2023-03-08T12:22:31.227Z,1.70
2023-03-08T12:27:28.939Z,1.70
2023-03-08T12:32:22.001Z,1.70
2023-03-08T12:37:22.607Z,1.70
2023-03-08T12:42:17.696Z,1.60
2023-03-08T12:47:22.594Z,1.60
2023-03-08T12:52:27.376Z,1.60
2023-03-08T12:57:25.663Z,1.60
2023-03-08T13:02:28.515Z,1.60
2023-03-08T13:07:27.988Z,1.60
2023-03-08T13:12:28.180Z,1.60
2023-03-08T13:17:49.830Z,1.60
2023-03-08T13:22:54.507Z,1.60
2023-03-08T13:27:52.717Z,1.60
2023-03-08T13:32:45.549Z,1.60
2023-03-08T13:37:36.213Z,1.60
2023-03-08T13:42:28.729Z,1.60
2023-03-08T13:47:30.790Z,1.60
2023-03-08T13:52:25.826Z,1.70
2023-03-08T13:57:22.029Z,1.70
2023-03-08T14:02:21.653Z,1.70
2023-03-08T14:07:21.575Z,1.70
2023-03-08T14:12:18.797Z,1.70
2023-03-08T14:17:20.256Z,1.70
2023-03-08T14:22:14.751Z,1.70
2023-03-08T14:27:08.590Z,1.70
2023-03-08T14:32:06.794Z,1.80
2023-03-08T14:37:00.540Z,1.80
2023-03-08T14:41:51.424Z,1.80
2023-03-08T14:46:45.006Z,1.90
2023-03-08T14:51:41.997Z,1.90
2023-03-08T14:56:34.634Z,1.90
2023-03-08T15:01:26.416Z,2.00
2023-03-08T15:06:21.804Z,2.00
2023-03-08T15:11:16.922Z,2.00
2023-03-08T15:16:08.657Z,2.00
2023-03-08T15:21:00.238Z,2.00
2023-03-08T15:25:52.107Z,2.00
2023-03-08T15:30:49.034Z,1.90
2023-03-08T15:36:48.396Z,1.90
2023-03-08T15:41:39.268Z,1.90
2023-03-08T15:46:32.117Z,1.90
2023-03-08T15:51:25.354Z,1.90
2023-03-08T15:56:16.728Z,1.80
2023-03-08T16:01:08.346Z,1.80
2023-03-08T16:06:00.884Z,1.80
2023-03-08T16:10:52.879Z,1.90
2023-03-08T16:15:44.142Z,1.90
2023-03-08T16:20:35.333Z,1.90
2023-03-08T16:25:27.840Z,1.80
2023-03-08T16:51:27.962Z,1.60
2023-03-08T16:56:19.480Z,1.60
2023-03-08T17:01:12.599Z,1.60
2023-03-08T17:06:08.374Z,1.60
2023-03-08T17:11:03.191Z,1.60
2023-03-08T17:30:18.293Z,1.50
2023-03-08T17:35:10.332Z,1.50
2023-03-08T17:40:01.048Z,1.50
2023-03-08T17:44:51.844Z,1.50
2023-03-08T17:49:44.157Z,1.50
2023-03-08T17:54:35.124Z,1.50
2023-03-08T17:59:26.261Z,1.50
2023-03-08T18:04:17.053Z,1.40
2023-03-08T18:09:11.300Z,1.50
2023-03-08T18:14:02.288Z,1.40
2023-03-08T18:18:53.445Z,1.40
2023-03-08T18:23:44.834Z,1.40
2023-03-08T18:28:37.345Z,1.40
2023-03-08T18:33:28.396Z,1.40
2023-03-08T18:38:18.923Z,1.40
2023-03-08T18:43:10.044Z,1.30
2023-03-08T18:48:02.639Z,1.40
2023-03-08T18:52:53.881Z,1.40
2023-03-08T18:57:45.000Z,1.40
2023-03-08T19:02:36.408Z,1.30
2023-03-08T19:07:29.193Z,1.30
2023-03-08T19:12:19.955Z,1.30
2023-03-08T19:17:23.912Z,1.30
2023-03-08T19:22:16.444Z,1.20
2023-03-08T19:27:08.815Z,1.20
2023-03-08T19:32:02.237Z,1.20
2023-03-08T19:36:56.525Z,1.20
2023-03-08T19:41:50.496Z,1.10
2023-03-08T19:46:43.858Z,1.10
2023-03-08T19:51:35.434Z,1.00
2023-03-08T19:56:28.830Z,1.00
2023-03-08T20:01:21.306Z,1.00
2023-03-08T20:06:14.810Z,1.00
2023-03-08T20:11:06.263Z,1.00
2023-03-08T20:15:56.943Z,1.00
2023-03-08T20:20:47.965Z,1.00
2023-03-08T20:25:41.033Z,1.10
2023-03-08T20:30:32.526Z,1.00
2023-03-08T20:35:24.092Z,1.10
2023-03-08T20:40:16.783Z,1.10
2023-03-08T20:52:11.911Z,1.10
2023-03-08T20:57:03.107Z,1.10
2023-03-08T21:01:54.488Z,1.10
2023-03-08T21:06:45.387Z,1.10
2023-03-08T21:11:38.508Z,1.10
2023-03-08T21:16:30.621Z,1.10
2023-03-08T21:21:24.385Z,1.20
2023-03-08T21:26:15.226Z,1.10
2023-03-08T21:31:11.472Z,1.10
2023-03-08T21:36:03.566Z,1.10
2023-03-08T21:40:54.459Z,1.10
2023-03-08T21:45:45.637Z,1.00
2023-03-08T21:50:40.788Z,1.00
2023-03-08T21:55:32.224Z,1.00
2023-03-08T22:00:23.090Z,1.00
2023-03-08T22:05:15.369Z,1.00
2023-03-08T22:10:09.761Z,1.00
2023-03-08T22:15:01.153Z,1.00
2023-03-08T22:19:53.354Z,1.00
2023-03-08T22:24:44.773Z,1.00
2023-03-08T22:29:37.050Z,1.00
2023-03-08T22:34:28.152Z,1.00
2023-03-08T22:39:19.495Z,1.00
2023-03-08T22:44:14.362Z,1.00
2023-03-08T22:49:11.570Z,1.00
2023-03-08T22:54:04.171Z,1.00
2023-03-08T22:58:56.051Z,1.00
2023-03-08T23:03:49.678Z,0.90
2023-03-08T23:08:42.389Z,1.00
2023-03-08T23:13:34.620Z,1.00
2023-03-08T23:18:25.993Z,1.00
2023-03-08T23:23:17.260Z,1.00
2023-03-08T23:28:09.539Z,0.90
2023-03-08T23:33:00.749Z,1.00
2023-03-08T23:37:51.822Z,0.90
2023-03-08T23:42:42.954Z,1.00
2023-03-08T23:47:36.224Z,0.90
2023-03-08T23:52:28.386Z,1.00
2023-03-08T23:57:19.630Z,1.00
